UAL62 YSSY-KSFO
Flight info
| Callsign | UAL62 |
|---|---|
| Flight time | N/A |
| Altitude | 31000 |
| Route | NOBAR B580 IFFEY DCT 2808S15923E 2531S16300E 2429S16421E 2123S16841E/N0498F330 1721S17317E 1348S17634E 0957S17938E 0534S17708W 0500S17641W 0050S17326W/N0489F350 0307N17002W 0523N16804W 0857N16452W 1242N16112W 1617N15724W 19N154W 1910N15346W 2031N15148W/N0480F370 2055N15108W 2237N14812W 2514N14320W 2703N14018W 3006N13542W 3230N13210W DCT CREAN R465 CINNY DCT PIRAT DCT OSI |
| Aircraft | B77W/H-SDE1E2E3FGHIJ2J3J4J5M1RWXY/LB1D1 |
Departure
| Time | 2026-04-20 05:28 |
|---|---|
| Airport | Sydney Kingsford Smith International Airport (YSSY) |
Arrival
| Time | N/A |
|---|---|
| Airport | San Francisco International Airport (KSFO) |
| Time | Latitude | Longitude | Altitude | Speed | Heading |
|---|---|---|---|---|---|
| 2026-04-20 04:32 | -33.93611 | 151.17011 | 35 ft | 0 kts | 168° |
| 2026-04-20 05:18 | -33.93610 | 151.17011 | 34 ft | 2 kts | 168° |
| 2026-04-20 05:19 | -33.93595 | 151.17007 | 34 ft | 2 kts | 168° |
| 2026-04-20 05:19 | -33.93581 | 151.17003 | 34 ft | 2 kts | 168° |
| 2026-04-20 05:19 | -33.93567 | 151.17000 | 34 ft | 2 kts | 168° |
| 2026-04-20 05:19 | -33.93557 | 151.16997 | 34 ft | 2 kts | 167° |
| 2026-04-20 05:20 | -33.93542 | 151.16991 | 34 ft | 2 kts | 144° |
| 2026-04-20 05:20 | -33.93530 | 151.16977 | 34 ft | 2 kts | 123° |
| 2026-04-20 05:20 | -33.93523 | 151.16959 | 34 ft | 2 kts | 103° |
| 2026-04-20 05:20 | -33.93521 | 151.16937 | 34 ft | 2 kts | 83° |
| 2026-04-20 05:21 | -33.93521 | 151.16934 | 34 ft | 2 kts | 78° |
| 2026-04-20 05:21 | -33.93515 | 151.16975 | 34 ft | 3 kts | 77° |
| 2026-04-20 05:21 | -33.93513 | 151.16986 | 34 ft | 0 kts | 77° |
| 2026-04-20 05:23 | -33.93512 | 151.16989 | 34 ft | 1 kts | 77° |
| 2026-04-20 05:24 | -33.93507 | 151.17015 | 34 ft | 5 kts | 77° |
| 2026-04-20 05:24 | -33.93485 | 151.17075 | 34 ft | 8 kts | 43° |
| 2026-04-20 05:24 | -33.93428 | 151.17084 | 34 ft | 8 kts | 350° |
| 2026-04-20 05:24 | -33.93371 | 151.17067 | 34 ft | 9 kts | 339° |
| 2026-04-20 05:25 | -33.93308 | 151.17023 | 34 ft | 13 kts | 315° |
| 2026-04-20 05:25 | -33.93238 | 151.16959 | 34 ft | 12 kts | 340° |
| 2026-04-20 05:25 | -33.93164 | 151.16940 | 34 ft | 10 kts | 349° |
| 2026-04-20 05:25 | -33.93101 | 151.16925 | 34 ft | 9 kts | 347° |
| 2026-04-20 05:26 | -33.93047 | 151.16910 | 34 ft | 7 kts | 349° |
| 2026-04-20 05:26 | -33.93003 | 151.16921 | 34 ft | 6 kts | 41° |
| 2026-04-20 05:26 | -33.92985 | 151.16965 | 34 ft | 6 kts | 75° |
| 2026-04-20 05:26 | -33.92975 | 151.17013 | 34 ft | 7 kts | 77° |
| 2026-04-20 05:27 | -33.92964 | 151.17072 | 34 ft | 8 kts | 80° |
| 2026-04-20 05:27 | -33.92961 | 151.17142 | 34 ft | 9 kts | 113° |
| 2026-04-20 05:27 | -33.93007 | 151.17178 | 34 ft | 0 kts | 168° |
| 2026-04-20 05:28 | -33.93177 | 151.17221 | 34 ft | 61 kts | 169° |
| 2026-04-20 05:28 | -33.93791 | 151.17380 | 35 ft | 126 kts | 168° |
| 2026-04-20 05:28 | -33.94842 | 151.17654 | 68 ft | 181 kts | 169° |
| 2026-04-20 05:28 | -33.96144 | 151.17964 | 691 ft | 194 kts | 173° |
| 2026-04-20 05:29 | -33.97456 | 151.18019 | 1639 ft | 189 kts | 181° |
| 2026-04-20 05:29 | -33.98772 | 151.17949 | 2055 ft | 197 kts | 179° |
| 2026-04-20 05:29 | -34.00101 | 151.18236 | 2482 ft | 204 kts | 155° |
| 2026-04-20 05:29 | -34.01225 | 151.19377 | 2726 ft | 225 kts | 126° |
| 2026-04-20 05:30 | -34.01772 | 151.21161 | 3190 ft | 239 kts | 103° |
| 2026-04-20 05:30 | -34.02051 | 151.23161 | 3695 ft | 248 kts | 103° |
| 2026-04-20 05:30 | -34.02314 | 151.25224 | 4257 ft | 255 kts | 102° |
| 2026-04-20 05:30 | -34.02578 | 151.27380 | 4793 ft | 264 kts | 102° |
| 2026-04-20 05:31 | -34.02856 | 151.29607 | 5465 ft | 267 kts | 103° |
| 2026-04-20 05:31 | -34.03135 | 151.31869 | 6150 ft | 270 kts | 99° |
| 2026-04-20 05:31 | -34.02940 | 151.34088 | 6721 ft | 281 kts | 73° |
| 2026-04-20 05:31 | -34.01996 | 151.36095 | 7381 ft | 286 kts | 58° |
| 2026-04-20 05:32 | -34.00806 | 151.38068 | 7939 ft | 292 kts | 58° |
| 2026-04-20 05:32 | -33.99604 | 151.40028 | 8537 ft | 295 kts | 58° |
| 2026-04-20 05:32 | -33.98379 | 151.42023 | 9187 ft | 297 kts | 57° |
| 2026-04-20 05:32 | -33.97151 | 151.44022 | 9778 ft | 300 kts | 58° |
| 2026-04-20 05:33 | -33.95904 | 151.46050 | 10348 ft | 304 kts | 57° |
| 2026-04-20 05:33 | -33.94649 | 151.48091 | 10789 ft | 313 kts | 57° |
| 2026-04-20 05:33 | -33.93355 | 151.50198 | 11015 ft | 329 kts | 57° |
| 2026-04-20 05:33 | -33.91991 | 151.52417 | 11262 ft | 345 kts | 57° |
| 2026-04-20 05:34 | -33.90535 | 151.54785 | 11531 ft | 362 kts | 57° |
| 2026-04-20 05:34 | -33.89052 | 151.57190 | 11847 ft | 376 kts | 57° |
| 2026-04-20 05:34 | -33.85964 | 151.62187 | 12760 ft | 396 kts | 57° |
| 2026-04-20 05:35 | -33.84308 | 151.64862 | 13482 ft | 399 kts | 57° |
| 2026-04-20 05:35 | -33.82665 | 151.67513 | 14226 ft | 400 kts | 56° |
| 2026-04-20 05:35 | -33.80985 | 151.70222 | 14821 ft | 406 kts | 56° |
| 2026-04-20 05:35 | -33.79290 | 151.72951 | 15418 ft | 412 kts | 56° |
| 2026-04-20 05:36 | -33.77555 | 151.75682 | 16035 ft | 416 kts | 54° |
| 2026-04-20 05:36 | -33.75703 | 151.78422 | 16700 ft | 419 kts | 53° |
| 2026-04-20 05:36 | -33.73963 | 151.80988 | 17266 ft | 424 kts | 53° |
| 2026-04-20 05:36 | -33.72209 | 151.83575 | 17819 ft | 427 kts | 53° |
| 2026-04-20 05:37 | -33.70352 | 151.86316 | 18411 ft | 431 kts | 53° |
| 2026-04-20 05:37 | -33.68415 | 151.89175 | 19034 ft | 435 kts | 53° |
| 2026-04-20 05:37 | -33.66436 | 151.92097 | 19677 ft | 438 kts | 54° |
| 2026-04-20 05:37 | -33.64490 | 151.94971 | 20209 ft | 442 kts | 54° |
| 2026-04-20 05:38 | -33.62493 | 151.97917 | 20771 ft | 446 kts | 54° |
| 2026-04-20 05:38 | -33.60490 | 152.00871 | 21349 ft | 449 kts | 54° |
| 2026-04-20 05:38 | -33.58510 | 152.03787 | 21850 ft | 453 kts | 54° |